Forside
METAR-TAF:

METAR-TAF

Lufthavne :

Grand Rapids, Michigan, USA

Breddekreds: 42-52-51N, længdekreds: 085-31-22W, højde: 242 m

Aktuelle vejr

Denne rapport blev lavet for 34 minutter siden, kl. 20:53 UTC
Vind 12 kt fra vest med vindstød på up til 19 kt
Temperatur 2°C
Fugtighed 80%
Tryk 1009 hPa
Sigt: 16.1 km
Nogle få skyer i en højde af 900 ft
Overskyet i en højde af 1100 ft

METAR: KGRR 262053Z 28012G19KT 10SM FEW009 OVC011 02/M01 A2981 RMK AO2 SLP103 60000 T00171011 53001

Tid: 16:27 (21:27 UTC)

Vejrudsigter

Denne rapport blev lavet for 3 timer og 47 minutter siden, kl. 17:40 UTC
Foreløbig gælder fra 26 på 18 UTC til 27 på 18 UTC
Vind 10 kt fra vest
Sigt: 10 km
Overskyet i en højde af 1500 ft
Fra 27 på 0000 UTC
Vind 8 kt fra vest
Sigt: 9.7 km
Overskyet i en højde af 800 ft
dis, byger i nærheden
Fra 27 på 1000 UTC
Vind 6 kt fra nordvest
Sigt: 4.8 km
Overskyet i en højde af 600 ft
dis

TAF: KGRR 261740Z 2618/2718 27010KT P6SM OVC015 FM270000 27008KT 6SM BR VCSH OVC008 FM271000 31006KT 3SM BR OVC006

Vejrobservationer og prognoser fra mere end 4000 lufthavne (METAR og TAF).

De gule og røde prikker repræsenterer de meteorologiske stationer.

Flyt musen over at se navnet på stationen.

Så klik over at se vejr observationer og prognoser.

At skifte det kort: Klik på de grønne knapper med et sort kors for at zoome ind; på den grønne knap med en bindestreg for at zoome ud; eller på de grønne pile for tilstødende kort.


METAR-TAF: